sensor_id;sensor_type;location;lat;lon;timestamp;pressure;altitude;pressure_sealevel;temperature;humidity
53758;BME280;39674;59.860;30.672;2022-10-03T00:00:22;100585.84;;;3.50;100.00
53758;BME280;39674;59.860;30.672;2022-10-03T00:03:35;100615.03;;;3.67;100.00
53758;BME280;39674;59.860;30.672;2022-10-03T00:06:35;100653.69;;;3.89;100.00
53758;BME280;39674;59.860;30.672;2022-10-03T00:09:42;100627.03;;;3.75;100.00
53758;BME280;39674;59.860;30.672;2022-10-03T00:12:38;100617.59;;;3.69;100.00
53758;BME280;39674;59.860;30.672;2022-10-03T00:15:27;100531.09;;;3.11;100.00
53758;BME280;39674;59.860;30.672;2022-10-03T00:18:13;100540.44;;;3.19;100.00
53758;BME280;39674;59.860;30.672;2022-10-03T00:21:10;100611.66;;;3.62;100.00
53758;BME280;39674;59.860;30.672;2022-10-03T00:23:47;100664.50;;;4.10;100.00
53758;BME280;39674;59.860;30.672;2022-10-03T00:26:35;100663.84;;;4.01;100.00
53758;BME280;39674;59.860;30.672;2022-10-03T00:29:39;100573.53;;;3.55;100.00
53758;BME280;39674;59.860;30.672;2022-10-03T00:32:32;100597.63;;;3.66;100.00
53758;BME280;39674;59.860;30.672;2022-10-03T00:35:23;100580.53;;;3.53;100.00
53758;BME280;39674;59.860;30.672;2022-10-03T00:38:33;100521.28;;;3.20;100.00
53758;BME280;39674;59.860;30.672;2022-10-03T00:54:02;100518.72;;;3.19;100.00
53758;BME280;39674;59.860;30.672;2022-10-03T00:57:15;100518.56;;;3.25;100.00
53758;BME280;39674;59.860;30.672;2022-10-03T01:00:13;100605.13;;;3.80;100.00
53758;BME280;39674;59.860;30.672;2022-10-03T01:03:19;100570.72;;;3.64;100.00
53758;BME280;39674;59.860;30.672;2022-10-03T01:06:15;100507.88;;;3.34;100.00
53758;BME280;39674;59.860;30.672;2022-10-03T01:09:14;100547.25;;;3.61;100.00
53758;BME280;39674;59.860;30.672;2022-10-03T01:12:18;100650.13;;;4.26;100.00
53758;BME280;39674;59.860;30.672;2022-10-03T01:15:24;100574.31;;;3.93;100.00
53758;BME280;39674;59.860;30.672;2022-10-03T01:18:15;100634.22;;;4.34;100.00
53758;BME280;39674;59.860;30.672;2022-10-03T01:21:01;100513.97;;;3.69;100.00
53758;BME280;39674;59.860;30.672;2022-10-03T01:27:33;100500.38;;;3.90;100.00
53758;BME280;39674;59.860;30.672;2022-10-03T01:30:43;100615.94;;;4.65;100.00
53758;BME280;39674;59.860;30.672;2022-10-03T01:33:23;100592.03;;;4.48;100.00
53758;BME280;39674;59.860;30.672;2022-10-03T01:36:27;100539.53;;;4.23;100.00
53758;BME280;39674;59.860;30.672;2022-10-03T01:39:16;100571.00;;;4.51;100.00
53758;BME280;39674;59.860;30.672;2022-10-03T01:42:11;100552.91;;;4.43;100.00
53758;BME280;39674;59.860;30.672;2022-10-03T01:44:54;100503.03;;;4.20;100.00
53758;BME280;39674;59.860;30.672;2022-10-03T01:47:49;100578.19;;;4.74;100.00
53758;BME280;39674;59.860;30.672;2022-10-03T01:50:35;100484.69;;;4.21;100.00
53758;BME280;39674;59.860;30.672;2022-10-03T01:53:37;100489.81;;;4.24;100.00
53758;BME280;39674;59.860;30.672;2022-10-03T01:56:22;100566.88;;;4.74;100.00
53758;BME280;39674;59.860;30.672;2022-10-03T01:59:07;100566.88;;;4.74;100.00
53758;BME280;39674;59.860;30.672;2022-10-03T02:01:48;100550.59;;;4.64;100.00
53758;BME280;39674;59.860;30.672;2022-10-03T02:04:40;100494.78;;;4.33;100.00
53758;BME280;39674;59.860;30.672;2022-10-03T02:07:27;100568.41;;;4.81;100.00
53758;BME280;39674;59.860;30.672;2022-10-03T02:10:37;100560.44;;;4.84;100.00
53758;BME280;39674;59.860;30.672;2022-10-03T02:13:22;100503.09;;;4.48;100.00
53758;BME280;39674;59.860;30.672;2022-10-03T02:16:13;100483.38;;;4.36;100.00
53758;BME280;39674;59.860;30.672;2022-10-03T02:18:59;100620.66;;;5.12;100.00
53758;BME280;39674;59.860;30.672;2022-10-03T02:21:51;100627.44;;;5.20;100.00
53758;BME280;39674;59.860;30.672;2022-10-03T02:24:56;100486.06;;;4.34;100.00
53758;BME280;39674;59.860;30.672;2022-10-03T02:28:26;100535.56;;;4.71;100.00
53758;BME280;39674;59.860;30.672;2022-10-03T02:34:40;100571.47;;;4.95;100.00
53758;BME280;39674;59.860;30.672;2022-10-03T02:47:51;100573.06;;;5.00;100.00
53758;BME280;39674;59.860;30.672;2022-10-03T03:00:09;100572.97;;;5.03;100.00
53758;BME280;39674;59.860;30.672;2022-10-03T03:06:25;100490.66;;;4.56;100.00
53758;BME280;39674;59.860;30.672;2022-10-03T03:09:38;100551.38;;;4.96;100.00
53758;BME280;39674;59.860;30.672;2022-10-03T03:12:41;100486.97;;;4.62;100.00
53758;BME280;39674;59.860;30.672;2022-10-03T03:18:36;100481.94;;;4.56;100.00
53758;BME280;39674;59.860;30.672;2022-10-03T03:21:23;100606.97;;;5.33;100.00
53758;BME280;39674;59.860;30.672;2022-10-03T03:24:28;100551.13;;;5.04;100.00
53758;BME280;39674;59.860;30.672;2022-10-03T03:27:07;100611.88;;;5.43;100.00
53758;BME280;39674;59.860;30.672;2022-10-03T03:30:00;100485.25;;;4.62;100.00
53758;BME280;39674;59.860;30.672;2022-10-03T03:32:48;100522.72;;;4.91;100.00
53758;BME280;39674;59.860;30.672;2022-10-03T03:35:38;100532.84;;;5.02;100.00
53758;BME280;39674;59.860;30.672;2022-10-03T03:38:32;100476.47;;;4.63;100.00
53758;BME280;39674;59.860;30.672;2022-10-03T03:41:40;100597.81;;;5.46;100.00
53758;BME280;39674;59.860;30.672;2022-10-03T03:44:49;100462.34;;;4.69;100.00
53758;BME280;39674;59.860;30.672;2022-10-03T03:48:04;100467.34;;;4.77;100.00
53758;BME280;39674;59.860;30.672;2022-10-03T03:50:49;100510.16;;;5.03;100.00
53758;BME280;39674;59.860;30.672;2022-10-03T03:54:20;100477.44;;;4.89;100.00
53758;BME280;39674;59.860;30.672;2022-10-03T04:00:15;100443.94;;;4.72;100.00
53758;BME280;39674;59.860;30.672;2022-10-03T04:03:17;100490.78;;;5.08;100.00
53758;BME280;39674;59.860;30.672;2022-10-03T04:06:07;100512.16;;;5.23;100.00
53758;BME280;39674;59.860;30.672;2022-10-03T04:08:57;100514.50;;;5.30;100.00
53758;BME280;39674;59.860;30.672;2022-10-03T04:12:22;100442.66;;;4.86;100.00
53758;BME280;39674;59.860;30.672;2022-10-03T04:15:28;100509.97;;;5.36;100.00
53758;BME280;39674;59.860;30.672;2022-10-03T04:18:46;100519.94;;;5.51;100.00
53758;BME280;39674;59.860;30.672;2022-10-03T04:22:06;100542.13;;;5.66;100.00
53758;BME280;39674;59.860;30.672;2022-10-03T04:25:32;100398.19;;;4.86;100.00
53758;BME280;39674;59.860;30.672;2022-10-03T04:29:16;100391.03;;;4.91;100.00
53758;BME280;39674;59.860;30.672;2022-10-03T04:38:54;100429.09;;;5.26;100.00
53758;BME280;39674;59.860;30.672;2022-10-03T04:44:01;100375.09;;;4.97;100.00
53758;BME280;39674;59.860;30.672;2022-10-03T04:46:28;100425.38;;;5.34;100.00
53758;BME280;39674;59.860;30.672;2022-10-03T04:49:42;100406.84;;;5.13;100.00
53758;BME280;39674;59.860;30.672;2022-10-03T04:52:57;100433.97;;;5.37;100.00
53758;BME280;39674;59.860;30.672;2022-10-03T04:56:02;100401.09;;;5.28;100.00
53758;BME280;39674;59.860;30.672;2022-10-03T04:58:46;100449.81;;;5.59;100.00
53758;BME280;39674;59.860;30.672;2022-10-03T05:01:27;100358.22;;;5.06;100.00
53758;BME280;39674;59.860;30.672;2022-10-03T05:04:14;100497.59;;;5.91;100.00
53758;BME280;39674;59.860;30.672;2022-10-03T05:07:06;100439.25;;;5.61;100.00
53758;BME280;39674;59.860;30.672;2022-10-03T05:09:53;100367.47;;;5.16;100.00
53758;BME280;39674;59.860;30.672;2022-10-03T05:12:33;100443.47;;;5.65;100.00
53758;BME280;39674;59.860;30.672;2022-10-03T05:15:23;100439.09;;;5.66;100.00
53758;BME280;39674;59.860;30.672;2022-10-03T05:18:19;100378.31;;;5.30;100.00
53758;BME280;39674;59.860;30.672;2022-10-03T05:21:12;100419.94;;;5.63;99.89
53758;BME280;39674;59.860;30.672;2022-10-03T05:24:11;100434.78;;;5.65;99.13
53758;BME280;39674;59.860;30.672;2022-10-03T05:26:53;100419.50;;;5.52;98.14
53758;BME280;39674;59.860;30.672;2022-10-03T05:29:39;100424.50;;;5.58;98.30
53758;BME280;39674;59.860;30.672;2022-10-03T05:32:22;100438.97;;;5.69;97.79
53758;BME280;39674;59.860;30.672;2022-10-03T05:38:23;100350.84;;;5.17;96.45
53758;BME280;39674;59.860;30.672;2022-10-03T05:41:22;100330.03;;;5.14;95.21
53758;BME280;39674;59.860;30.672;2022-10-03T05:44:15;100401.75;;;5.60;93.95
53758;BME280;39674;59.860;30.672;2022-10-03T05:47:02;100347.34;;;5.18;92.32
53758;BME280;39674;59.860;30.672;2022-10-03T05:50:32;100457.25;;;5.95;93.08
53758;BME280;39674;59.860;30.672;2022-10-03T05:53:38;100408.66;;;5.61;92.39
53758;BME280;39674;59.860;30.672;2022-10-03T05:56:57;100324.66;;;5.17;92.13
53758;BME280;39674;59.860;30.672;2022-10-03T05:59:52;100451.31;;;5.90;92.10
53758;BME280;39674;59.860;30.672;2022-10-03T06:02:57;100458.16;;;5.94;92.67
53758;BME280;39674;59.860;30.672;2022-10-03T06:05:54;100396.38;;;5.63;90.92
53758;BME280;39674;59.860;30.672;2022-10-03T06:11:59;100304.81;;;5.11;89.77
53758;BME280;39674;59.860;30.672;2022-10-03T06:22:16;100306.03;;;5.26;87.55
53758;BME280;39674;59.860;30.672;2022-10-03T06:25:47;100404.59;;;5.78;86.57
53758;BME280;39674;59.860;30.672;2022-10-03T06:53:07;100348.00;;;5.72;87.99
53758;BME280;39674;59.860;30.672;2022-10-03T07:00:12;100382.75;;;6.03;85.63
53758;BME280;39674;59.860;30.672;2022-10-03T07:07:34;100391.50;;;6.02;87.08
53758;BME280;39674;59.860;30.672;2022-10-03T07:14:03;100439.41;;;6.31;88.05
53758;BME280;39674;59.860;30.672;2022-10-03T07:17:07;100279.97;;;5.47;88.06
53758;BME280;39674;59.860;30.672;2022-10-03T07:20:28;100363.69;;;5.98;87.78
53758;BME280;39674;59.860;30.672;2022-10-03T07:30:21;100337.69;;;5.91;90.60
53758;BME280;39674;59.860;30.672;2022-10-03T07:33:31;100416.59;;;6.33;91.27
53758;BME280;39674;59.860;30.672;2022-10-03T07:37:21;100408.59;;;6.36;91.70
53758;BME280;39674;59.860;30.672;2022-10-03T07:41:27;100354.56;;;6.08;92.13
53758;BME280;39674;59.860;30.672;2022-10-03T07:55:35;100329.56;;;5.99;93.76
53758;BME280;39674;59.860;30.672;2022-10-03T07:58:35;100353.44;;;6.15;93.97
53758;BME280;39674;59.860;30.672;2022-10-03T08:02:38;100282.56;;;5.71;94.52
53758;BME280;39674;59.860;30.672;2022-10-03T08:08:39;100272.09;;;5.71;95.12
53758;BME280;39674;59.860;30.672;2022-10-03T08:10:37;100390.66;;;6.47;95.66
53758;BME280;39674;59.860;30.672;2022-10-03T08:13:58;100386.13;;;6.51;96.21
53758;BME280;39674;59.860;30.672;2022-10-03T08:17:29;100379.13;;;6.51;95.67
53758;BME280;39674;59.860;30.672;2022-10-03T08:20:52;100233.44;;;5.76;95.48
53758;BME280;39674;59.860;30.672;2022-10-03T08:24:15;100236.88;;;5.78;95.84
53758;BME280;39674;59.860;30.672;2022-10-03T08:28:28;100287.28;;;6.08;95.81
53758;BME280;39674;59.860;30.672;2022-10-03T08:35:55;100285.66;;;6.04;95.27
53758;BME280;39674;59.860;30.672;2022-10-03T08:39:50;100310.31;;;6.22;96.09
53758;BME280;39674;59.860;30.672;2022-10-03T08:50:26;100185.19;;;5.59;96.92
53758;BME280;39674;59.860;30.672;2022-10-03T08:57:19;100255.81;;;6.08;97.20
53758;BME280;39674;59.860;30.672;2022-10-03T09:00:54;100228.97;;;6.02;97.30
53758;BME280;39674;59.860;30.672;2022-10-03T09:14:51;100245.44;;;6.48;97.37
53758;BME280;39674;59.860;30.672;2022-10-03T09:21:46;100211.56;;;6.21;97.38
53758;BME280;39674;59.860;30.672;2022-10-03T09:24:57;100213.94;;;6.28;97.96
53758;BME280;39674;59.860;30.672;2022-10-03T09:32:10;100254.50;;;6.62;97.52
53758;BME280;39674;59.860;30.672;2022-10-03T09:35:50;100165.59;;;6.13;97.76
53758;BME280;39674;59.860;30.672;2022-10-03T09:39:19;100122.22;;;5.83;97.36
53758;BME280;39674;59.860;30.672;2022-10-03T11:53:59;100020.28;;;6.18;100.00
53758;BME280;39674;59.860;30.672;2022-10-03T12:01:58;99913.06;;;5.52;100.00
53758;BME280;39674;59.860;30.672;2022-10-03T12:16:08;99995.47;;;6.06;100.00
53758;BME280;39674;59.860;30.672;2022-10-03T12:19:20;99905.91;;;5.55;100.00
53758;BME280;39674;59.860;30.672;2022-10-03T12:22:38;99904.25;;;5.54;100.00
53758;BME280;39674;59.860;30.672;2022-10-03T12:29:30;99896.09;;;5.60;100.00
53758;BME280;39674;59.860;30.672;2022-10-03T12:47:33;99893.59;;;5.57;100.00
53758;BME280;39674;59.860;30.672;2022-10-03T12:51:46;99991.94;;;6.26;100.00
53758;BME280;39674;59.860;30.672;2022-10-03T13:07:55;99926.31;;;5.88;100.00
53758;BME280;39674;59.860;30.672;2022-10-03T13:14:02;99918.88;;;5.79;100.00
53758;BME280;39674;59.860;30.672;2022-10-03T13:17:45;99859.19;;;5.46;100.00
53758;BME280;39674;59.860;30.672;2022-10-03T13:21:39;99968.13;;;6.12;100.00
53758;BME280;39674;59.860;30.672;2022-10-03T14:00:19;99908.75;;;6.11;100.00
53758;BME280;39674;59.860;30.672;2022-10-03T14:03:02;99822.78;;;5.40;100.00
53758;BME280;39674;59.860;30.672;2022-10-03T14:24:39;99850.59;;;5.82;100.00
53758;BME280;39674;59.860;30.672;2022-10-03T14:28:06;99761.97;;;5.33;100.00
53758;BME280;39674;59.860;30.672;2022-10-03T14:31:18;99764.31;;;5.39;100.00
53758;BME280;39674;59.860;30.672;2022-10-03T14:34:37;99777.72;;;5.52;100.00
53758;BME280;39674;59.860;30.672;2022-10-03T14:37:50;99753.00;;;5.39;100.00
53758;BME280;39674;59.860;30.672;2022-10-03T14:41:00;99758.25;;;5.39;100.00
53758;BME280;39674;59.860;30.672;2022-10-03T14:44:21;99841.53;;;5.89;100.00
53758;BME280;39674;59.860;30.672;2022-10-03T14:48:13;99814.34;;;5.73;100.00
53758;BME280;39674;59.860;30.672;2022-10-03T15:03:04;99820.44;;;5.92;100.00
53758;BME280;39674;59.860;30.672;2022-10-03T15:10:26;99830.91;;;5.92;100.00
53758;BME280;39674;59.860;30.672;2022-10-03T15:13:43;99816.31;;;5.87;100.00
53758;BME280;39674;59.860;30.672;2022-10-03T15:16:54;99739.13;;;5.37;100.00
53758;BME280;39674;59.860;30.672;2022-10-03T15:24:02;99827.50;;;5.90;100.00
53758;BME280;39674;59.860;30.672;2022-10-03T15:34:54;99833.53;;;5.92;100.00
53758;BME280;39674;59.860;30.672;2022-10-03T15:38:01;99753.63;;;5.44;100.00
53758;BME280;39674;59.860;30.672;2022-10-03T15:45:34;99731.25;;;5.37;100.00
53758;BME280;39674;59.860;30.672;2022-10-03T15:50:12;99857.84;;;6.15;100.00
53758;BME280;39674;59.860;30.672;2022-10-03T15:56:01;99723.00;;;5.46;100.00
53758;BME280;39674;59.860;30.672;2022-10-03T15:59:04;99833.50;;;6.13;100.00
53758;BME280;39674;59.860;30.672;2022-10-03T16:02:22;99775.66;;;5.78;100.00
53758;BME280;39674;59.860;30.672;2022-10-03T16:05:08;99824.06;;;6.09;100.00
53758;BME280;39674;59.860;30.672;2022-10-03T16:07:57;99710.81;;;5.45;100.00
53758;BME280;39674;59.860;30.672;2022-10-03T16:33:11;99723.34;;;5.76;100.00
53758;BME280;39674;59.860;30.672;2022-10-03T16:35:52;99694.25;;;5.63;100.00
53758;BME280;39674;59.860;30.672;2022-10-03T16:42:10;99691.31;;;5.70;100.00
53758;BME280;39674;59.860;30.672;2022-10-03T16:45:42;99679.44;;;5.62;100.00
53758;BME280;39674;59.860;30.672;2022-10-03T16:52:32;99622.19;;;5.36;100.00
53758;BME280;39674;59.860;30.672;2022-10-03T16:55:26;99611.59;;;5.39;100.00
53758;BME280;39674;59.860;30.672;2022-10-03T16:58:37;99683.34;;;5.90;100.00
53758;BME280;39674;59.860;30.672;2022-10-03T17:01:31;99622.06;;;5.39;100.00
53758;BME280;39674;59.860;30.672;2022-10-03T17:05:19;99672.38;;;5.82;100.00
53758;BME280;39674;59.860;30.672;2022-10-03T17:08:00;99656.56;;;5.66;100.00
53758;BME280;39674;59.860;30.672;2022-10-03T17:11:51;99669.72;;;5.84;100.00
53758;BME280;39674;59.860;30.672;2022-10-03T17:14:55;99645.75;;;5.74;100.00
53758;BME280;39674;59.860;30.672;2022-10-03T17:17:46;99604.94;;;5.51;100.00
53758;BME280;39674;59.860;30.672;2022-10-03T17:20:44;99576.78;;;5.37;100.00
53758;BME280;39674;59.860;30.672;2022-10-03T17:23:50;99637.56;;;5.80;100.00
53758;BME280;39674;59.860;30.672;2022-10-03T17:30:12;99661.56;;;5.90;100.00
53758;BME280;39674;59.860;30.672;2022-10-03T17:31:17;99569.53;;;5.42;100.00
53758;BME280;39674;59.860;30.672;2022-10-03T17:39:29;99588.84;;;5.58;100.00
53758;BME280;39674;59.860;30.672;2022-10-03T17:42:28;99630.31;;;5.85;100.00
53758;BME280;39674;59.860;30.672;2022-10-03T17:49:55;99557.38;;;5.41;100.00
53758;BME280;39674;59.860;30.672;2022-10-03T18:01:19;99578.97;;;5.63;100.00
53758;BME280;39674;59.860;30.672;2022-10-03T18:05:24;99604.13;;;5.85;100.00
53758;BME280;39674;59.860;30.672;2022-10-03T18:12:35;99612.22;;;5.98;100.00
53758;BME280;39674;59.860;30.672;2022-10-03T18:22:41;99589.50;;;5.99;100.00
53758;BME280;39674;59.860;30.672;2022-10-03T18:25:57;99589.63;;;5.95;100.00
53758;BME280;39674;59.860;30.672;2022-10-03T18:29:41;99501.31;;;5.45;100.00
53758;BME280;39674;59.860;30.672;2022-10-03T18:32:35;99629.53;;;6.20;100.00
53758;BME280;39674;59.860;30.672;2022-10-03T18:35:32;99630.22;;;6.23;100.00
53758;BME280;39674;59.860;30.672;2022-10-03T18:38:38;99493.69;;;5.40;100.00
53758;BME280;39674;59.860;30.672;2022-10-03T18:41:56;99556.47;;;5.77;100.00
53758;BME280;39674;59.860;30.672;2022-10-03T18:44:36;99558.78;;;5.83;100.00
53758;BME280;39674;59.860;30.672;2022-10-03T18:47:35;99587.66;;;6.01;100.00
53758;BME280;39674;59.860;30.672;2022-10-03T18:50:30;99518.25;;;5.55;100.00
53758;BME280;39674;59.860;30.672;2022-10-03T18:53:46;99630.03;;;6.26;100.00
53758;BME280;39674;59.860;30.672;2022-10-03T18:56:27;99623.25;;;6.22;100.00
53758;BME280;39674;59.860;30.672;2022-10-03T18:59:30;99624.66;;;6.30;100.00
53758;BME280;39674;59.860;30.672;2022-10-03T19:02:49;99620.19;;;6.32;100.00
53758;BME280;39674;59.860;30.672;2022-10-03T19:05:51;99572.69;;;6.03;100.00
53758;BME280;39674;59.860;30.672;2022-10-03T19:09:06;99615.69;;;6.34;100.00
53758;BME280;39674;59.860;30.672;2022-10-03T19:12:26;99593.66;;;6.20;100.00
53758;BME280;39674;59.860;30.672;2022-10-03T19:15:40;99564.84;;;6.03;100.00
53758;BME280;39674;59.860;30.672;2022-10-03T19:18:41;99496.28;;;5.58;100.00
53758;BME280;39674;59.860;30.672;2022-10-03T19:21:16;99621.09;;;6.31;100.00
53758;BME280;39674;59.860;30.672;2022-10-03T19:24:07;99622.81;;;6.32;100.00
53758;BME280;39674;59.860;30.672;2022-10-03T19:26:47;99505.16;;;5.55;100.00
53758;BME280;39674;59.860;30.672;2022-10-03T19:29:32;99573.63;;;6.02;100.00
53758;BME280;39674;59.860;30.672;2022-10-03T19:32:16;99510.72;;;5.67;100.00
53758;BME280;39674;59.860;30.672;2022-10-03T19:35:14;99600.28;;;6.28;100.00
53758;BME280;39674;59.860;30.672;2022-10-03T19:37:52;99606.22;;;6.31;100.00
53758;BME280;39674;59.860;30.672;2022-10-03T19:40:56;99484.84;;;5.60;100.00
53758;BME280;39674;59.860;30.672;2022-10-03T19:43:42;99557.53;;;6.09;100.00
53758;BME280;39674;59.860;30.672;2022-10-03T19:49:26;99532.47;;;6.04;100.00
53758;BME280;39674;59.860;30.672;2022-10-03T19:52:29;99511.91;;;5.94;100.00
53758;BME280;39674;59.860;30.672;2022-10-03T19:55:12;99510.25;;;5.93;100.00
53758;BME280;39674;59.860;30.672;2022-10-03T19:58:10;99595.41;;;6.37;100.00
53758;BME280;39674;59.860;30.672;2022-10-03T20:00:57;99515.63;;;5.90;100.00
53758;BME280;39674;59.860;30.672;2022-10-03T20:03:58;99539.16;;;6.09;100.00
53758;BME280;39674;59.860;30.672;2022-10-03T20:06:36;99496.97;;;5.97;100.00
53758;BME280;39674;59.860;30.672;2022-10-03T20:09:27;99505.31;;;6.05;100.00
53758;BME280;39674;59.860;30.672;2022-10-03T20:12:12;99533.59;;;6.16;100.00
53758;BME280;39674;59.860;30.672;2022-10-03T20:15:06;99485.38;;;6.02;100.00
53758;BME280;39674;59.860;30.672;2022-10-03T20:18:23;99560.59;;;6.51;100.00
53758;BME280;39674;59.860;30.672;2022-10-03T20:20:37;99550.22;;;6.32;100.00
53758;BME280;39674;59.860;30.672;2022-10-03T20:23:12;99555.59;;;6.47;100.00
53758;BME280;39674;59.860;30.672;2022-10-03T20:25:48;99502.38;;;6.11;100.00
53758;BME280;39674;59.860;30.672;2022-10-03T20:29:02;99504.75;;;6.16;100.00
53758;BME280;39674;59.860;30.672;2022-10-03T20:31:45;99439.19;;;5.82;100.00
53758;BME280;39674;59.860;30.672;2022-10-03T20:34:21;99557.03;;;6.52;100.00
53758;BME280;39674;59.860;30.672;2022-10-03T20:37:18;99494.50;;;6.11;100.00
53758;BME280;39674;59.860;30.672;2022-10-03T20:40:13;99415.00;;;5.77;100.00
53758;BME280;39674;59.860;30.672;2022-10-03T20:43:29;99420.69;;;5.85;100.00
53758;BME280;39674;59.860;30.672;2022-10-03T20:46:31;99548.16;;;6.55;100.00
53758;BME280;39674;59.860;30.672;2022-10-03T20:49:31;99511.06;;;6.29;100.00
53758;BME280;39674;59.860;30.672;2022-10-03T20:52:16;99446.56;;;5.91;100.00
53758;BME280;39674;59.860;30.672;2022-10-03T20:54:51;99519.28;;;6.39;100.00
53758;BME280;39674;59.860;30.672;2022-10-03T20:57:33;99514.38;;;6.33;100.00
53758;BME280;39674;59.860;30.672;2022-10-03T21:00:17;99429.16;;;5.90;100.00
53758;BME280;39674;59.860;30.672;2022-10-03T21:03:17;99437.78;;;5.92;100.00
53758;BME280;39674;59.860;30.672;2022-10-03T21:06:25;99448.88;;;5.98;100.00
53758;BME280;39674;59.860;30.672;2022-10-03T21:09:15;99486.78;;;6.25;100.00
53758;BME280;39674;59.860;30.672;2022-10-03T21:11:56;99537.34;;;6.61;100.00
53758;BME280;39674;59.860;30.672;2022-10-03T21:14:47;99484.06;;;6.27;100.00
53758;BME280;39674;59.860;30.672;2022-10-03T21:17:21;99445.78;;;6.07;100.00
53758;BME280;39674;59.860;30.672;2022-10-03T21:20:13;99507.69;;;6.43;100.00
53758;BME280;39674;59.860;30.672;2022-10-03T21:23:31;99504.13;;;6.44;100.00
53758;BME280;39674;59.860;30.672;2022-10-03T21:26:12;99497.97;;;6.45;100.00
53758;BME280;39674;59.860;30.672;2022-10-03T21:28:42;99502.34;;;6.45;100.00
53758;BME280;39674;59.860;30.672;2022-10-03T21:31:31;99464.25;;;6.21;100.00
53758;BME280;39674;59.860;30.672;2022-10-03T21:34:31;99475.78;;;6.35;100.00
53758;BME280;39674;59.860;30.672;2022-10-03T21:37:10;99487.13;;;6.35;100.00
53758;BME280;39674;59.860;30.672;2022-10-03T21:39:58;99485.44;;;6.34;100.00
53758;BME280;39674;59.860;30.672;2022-10-03T21:42:57;99555.53;;;6.80;100.00
53758;BME280;39674;59.860;30.672;2022-10-03T21:45:42;99482.56;;;6.39;100.00
53758;BME280;39674;59.860;30.672;2022-10-03T21:48:34;99502.69;;;6.54;100.00
53758;BME280;39674;59.860;30.672;2022-10-03T21:51:22;99473.75;;;6.40;100.00
53758;BME280;39674;59.860;30.672;2022-10-03T21:54:28;99506.88;;;6.58;100.00
53758;BME280;39674;59.860;30.672;2022-10-03T21:57:15;99502.38;;;6.61;100.00
53758;BME280;39674;59.860;30.672;2022-10-03T22:00:14;99439.56;;;6.25;100.00
53758;BME280;39674;59.860;30.672;2022-10-03T22:03:00;99432.78;;;6.21;100.00
53758;BME280;39674;59.860;30.672;2022-10-03T22:05:50;99417.47;;;6.14;100.00
53758;BME280;39674;59.860;30.672;2022-10-03T22:08:34;99540.72;;;6.95;100.00
53758;BME280;39674;59.860;30.672;2022-10-03T22:11:28;99547.75;;;6.95;100.00
53758;BME280;39674;59.860;30.672;2022-10-03T22:14:51;99430.94;;;6.23;100.00
53758;BME280;39674;59.860;30.672;2022-10-03T22:21:26;99458.00;;;6.40;100.00
53758;BME280;39674;59.860;30.672;2022-10-03T22:24:02;99561.81;;;6.94;100.00
53758;BME280;39674;59.860;30.672;2022-10-03T22:26:43;99449.53;;;6.35;100.00
53758;BME280;39674;59.860;30.672;2022-10-03T22:29:26;99452.16;;;6.35;100.00
53758;BME280;39674;59.860;30.672;2022-10-03T22:32:25;99518.66;;;6.83;100.00
53758;BME280;39674;59.860;30.672;2022-10-03T22:35:15;99510.19;;;6.78;100.00
53758;BME280;39674;59.860;30.672;2022-10-03T22:37:59;99450.91;;;6.42;100.00
53758;BME280;39674;59.860;30.672;2022-10-03T22:40:45;99461.31;;;6.43;100.00
53758;BME280;39674;59.860;30.672;2022-10-03T22:43:38;99555.53;;;7.12;100.00
53758;BME280;39674;59.860;30.672;2022-10-03T22:46:28;99488.75;;;6.70;100.00
53758;BME280;39674;59.860;30.672;2022-10-03T22:49:41;99560.63;;;7.15;100.00
53758;BME280;39674;59.860;30.672;2022-10-03T22:52:18;99558.84;;;7.16;100.00
53758;BME280;39674;59.860;30.672;2022-10-03T22:54:53;99559.09;;;7.11;100.00
53758;BME280;39674;59.860;30.672;2022-10-03T22:57:43;99459.22;;;6.50;100.00
53758;BME280;39674;59.860;30.672;2022-10-03T23:00:30;99513.41;;;6.83;100.00
53758;BME280;39674;59.860;30.672;2022-10-03T23:03:07;99450.56;;;6.48;100.00
53758;BME280;39674;59.860;30.672;2022-10-03T23:06:14;99529.97;;;7.00;100.00
53758;BME280;39674;59.860;30.672;2022-10-03T23:09:16;99506.44;;;6.82;100.00
53758;BME280;39674;59.860;30.672;2022-10-03T23:11:53;99524.72;;;7.00;100.00
53758;BME280;39674;59.860;30.672;2022-10-03T23:14:49;99521.34;;;6.98;100.00
53758;BME280;39674;59.860;30.672;2022-10-03T23:17:52;99451.78;;;6.58;100.00
53758;BME280;39674;59.860;30.672;2022-10-03T23:24:17;99579.69;;;7.35;100.00
53758;BME280;39674;59.860;30.672;2022-10-03T23:27:43;99571.47;;;7.41;100.00
53758;BME280;39674;59.860;30.672;2022-10-03T23:31:12;99591.44;;;7.44;100.00
53758;BME280;39674;59.860;30.672;2022-10-03T23:34:11;99539.28;;;7.21;100.00
53758;BME280;39674;59.860;30.672;2022-10-03T23:37:02;99456.94;;;6.76;100.00
53758;BME280;39674;59.860;30.672;2022-10-03T23:40:29;99519.97;;;7.22;100.00
53758;BME280;39674;59.860;30.672;2022-10-03T23:43:32;99460.91;;;6.83;100.00
53758;BME280;39674;59.860;30.672;2022-10-03T23:47:56;99473.50;;;6.93;100.00
53758;BME280;39674;59.860;30.672;2022-10-03T23:49:41;99446.19;;;6.81;100.00
53758;BME280;39674;59.860;30.672;2022-10-03T23:52:22;99558.31;;;7.41;100.00
53758;BME280;39674;59.860;30.672;2022-10-03T23:55:23;99453.13;;;6.82;100.00
53758;BME280;39674;59.860;30.672;2022-10-03T23:58:27;99577.34;;;7.61;100.00
